createdAt,value
2023-05-09T00:01:07.685Z,7.30
2023-05-09T00:03:36.092Z,6.68
2023-05-09T00:06:04.382Z,7.30
2023-05-09T00:08:33.997Z,8.10
2023-05-09T00:11:02.828Z,6.18
2023-05-09T00:13:31.071Z,7.70
2023-05-09T00:15:59.536Z,7.75
2023-05-09T00:18:28.344Z,7.75
2023-05-09T00:20:56.768Z,7.53
2023-05-09T00:23:24.910Z,7.30
2023-05-09T00:25:54.399Z,7.47
2023-05-09T00:28:22.506Z,7.20
2023-05-09T00:30:51.113Z,6.25
2023-05-09T00:33:19.275Z,7.10
2023-05-09T00:35:47.601Z,6.65
2023-05-09T00:38:15.734Z,6.97
2023-05-09T00:40:43.854Z,6.32
2023-05-09T00:43:13.332Z,7.20
2023-05-09T00:45:41.664Z,6.68
2023-05-09T00:48:10.196Z,6.32
2023-05-09T00:50:38.487Z,7.10
2023-05-09T00:53:06.745Z,6.78
2023-05-09T00:55:35.931Z,6.65
2023-05-09T00:58:04.852Z,6.95
2023-05-09T01:00:34.431Z,7.38
2023-05-09T01:03:02.764Z,6.78
2023-05-09T01:05:37.153Z,6.35
2023-05-09T01:08:11.688Z,6.72
2023-05-09T01:10:48.762Z,6.90
2023-05-09T01:13:23.917Z,6.88
2023-05-09T01:15:59.657Z,6.47
2023-05-09T01:18:34.562Z,6.80
2023-05-09T01:21:07.716Z,6.97
2023-05-09T01:24:17.518Z,6.78
2023-05-09T01:26:48.058Z,6.03
2023-05-09T01:29:35.548Z,6.80
2023-05-09T01:32:07.301Z,6.90
2023-05-09T01:34:37.864Z,5.28
2023-05-09T01:37:08.343Z,4.40
2023-05-09T01:39:41.876Z,7.03
2023-05-09T01:42:12.631Z,6.25
2023-05-09T01:44:44.735Z,6.10
2023-05-09T01:47:13.384Z,5.70
2023-05-09T01:49:44.194Z,6.47
2023-05-09T01:52:15.858Z,6.50
2023-05-09T01:54:45.488Z,6.75
2023-05-09T01:57:13.960Z,6.22
2023-05-09T01:59:45.808Z,6.28
2023-05-09T02:02:14.630Z,5.90
2023-05-09T02:04:44.225Z,6.40
2023-05-09T02:07:13.858Z,6.32
2023-05-09T02:09:42.166Z,6.43
2023-05-09T02:12:10.770Z,6.18
2023-05-09T02:14:38.851Z,5.65
2023-05-09T02:17:09.939Z,6.65
2023-05-09T02:19:38.035Z,5.75
2023-05-09T02:22:06.282Z,6.20
2023-05-09T02:24:35.431Z,6.20
2023-05-09T02:27:04.445Z,5.80
2023-05-09T02:29:40.493Z,6.50
2023-05-09T02:32:13.633Z,6.00
2023-05-09T02:34:42.838Z,6.30
2023-05-09T02:37:11.933Z,6.45
2023-05-09T02:39:40.593Z,6.45
2023-05-09T02:42:11.270Z,5.68
2023-05-09T02:44:39.909Z,4.95
2023-05-09T02:47:08.877Z,6.05
2023-05-09T02:49:38.702Z,5.40
2023-05-09T02:52:07.249Z,6.65
2023-05-09T02:54:35.634Z,5.78
2023-05-09T02:57:04.084Z,6.53
2023-05-09T02:59:33.089Z,5.80
2023-05-09T03:02:01.629Z,6.28
2023-05-09T03:04:30.541Z,6.05
2023-05-09T03:07:00.402Z,6.13
2023-05-09T03:09:28.792Z,6.60
2023-05-09T03:11:57.468Z,6.20
2023-05-09T03:14:26.080Z,6.07
2023-05-09T03:16:54.457Z,5.85
2023-05-09T03:19:22.898Z,6.32
2023-05-09T03:21:51.291Z,5.80
2023-05-09T03:24:21.012Z,5.72
2023-05-09T03:26:49.405Z,6.10
2023-05-09T03:29:17.778Z,5.60
2023-05-09T03:31:46.251Z,5.45
2023-05-09T03:34:15.406Z,5.35
2023-05-09T03:36:44.299Z,5.13
2023-05-09T03:39:12.695Z,6.00
2023-05-09T03:41:43.685Z,5.75
2023-05-09T03:44:12.063Z,5.70
2023-05-09T03:46:40.564Z,5.70
2023-05-09T03:49:09.125Z,5.30
2023-05-09T03:51:38.542Z,5.22
2023-05-09T03:54:07.852Z,5.90
2023-05-09T03:56:36.373Z,5.10
2023-05-09T03:59:06.231Z,5.78
2023-05-09T04:01:34.769Z,5.70
2023-05-09T04:04:03.281Z,5.72
2023-05-09T04:06:33.305Z,5.80
2023-05-09T04:09:01.718Z,5.55
2023-05-09T04:11:30.151Z,6.03
2023-05-09T04:13:58.580Z,5.60
2023-05-09T04:16:28.417Z,5.80
2023-05-09T04:18:56.846Z,4.95
2023-05-09T04:21:25.798Z,6.28
2023-05-09T04:23:54.452Z,5.88
2023-05-09T04:26:23.051Z,5.53
2023-05-09T04:28:52.928Z,4.70
2023-05-09T04:31:21.379Z,6.03
2023-05-09T04:33:51.486Z,5.35
2023-05-09T04:36:19.899Z,6.00
2023-05-09T04:38:48.725Z,5.10
2023-05-09T04:41:17.190Z,5.95
2023-05-09T04:43:46.017Z,5.43
2023-05-09T04:46:14.517Z,4.45
2023-05-09T04:48:42.952Z,5.60
2023-05-09T04:51:12.707Z,6.70
2023-05-09T04:53:41.122Z,5.68
2023-05-09T04:56:09.807Z,5.93
2023-05-09T04:58:39.550Z,6.18
2023-05-09T05:01:07.997Z,6.70
2023-05-09T05:03:36.467Z,6.28
2023-05-09T05:06:04.863Z,5.95
2023-05-09T05:08:34.660Z,4.82
2023-05-09T05:11:03.082Z,5.68
2023-05-09T05:13:31.542Z,5.30
2023-05-09T05:15:59.973Z,5.32
2023-05-09T05:18:28.477Z,6.32
2023-05-09T05:20:56.896Z,6.40
2023-05-09T05:23:25.303Z,6.82
2023-05-09T05:25:55.116Z,6.78
2023-05-09T05:28:23.520Z,6.22
2023-05-09T05:30:51.948Z,5.20
2023-05-09T05:33:20.593Z,6.47
2023-05-09T05:35:48.969Z,6.88
2023-05-09T05:38:17.395Z,6.63
2023-05-09T05:40:45.760Z,7.45
2023-05-09T05:43:15.551Z,5.93
2023-05-09T05:45:43.959Z,5.85
2023-05-09T05:48:12.375Z,6.85
2023-05-09T05:50:40.840Z,8.05
2023-05-09T05:53:09.239Z,8.27
2023-05-09T05:55:37.869Z,7.20
2023-05-09T05:58:06.302Z,6.55
2023-05-09T06:00:36.268Z,7.80
2023-05-09T06:03:04.724Z,8.15
2023-05-09T06:05:33.277Z,4.93
2023-05-09T06:08:01.666Z,8.50
2023-05-09T06:10:30.159Z,7.78
2023-05-09T06:12:58.611Z,7.68
2023-05-09T06:15:27.040Z,6.75
2023-05-09T06:17:57.087Z,7.28
2023-05-09T06:20:25.506Z,8.57
2023-05-09T06:22:54.139Z,7.72
2023-05-09T06:25:22.482Z,8.93
2023-05-09T06:27:50.896Z,8.10
2023-05-09T06:30:26.343Z,8.48
2023-05-09T06:32:58.140Z,8.27
2023-05-09T06:35:26.659Z,7.20
2023-05-09T06:37:55.088Z,9.55
2023-05-09T06:40:23.563Z,8.63
2023-05-09T06:42:51.987Z,9.05
2023-05-09T06:45:20.733Z,9.63
2023-05-09T06:47:49.375Z,7.80
2023-05-09T06:50:19.160Z,7.70
2023-05-09T06:52:47.520Z,9.57
2023-05-09T06:55:16.365Z,9.63
2023-05-09T06:57:45.004Z,8.40
2023-05-09T07:00:14.098Z,9.93
2023-05-09T07:02:43.270Z,9.55
2023-05-09T07:05:11.826Z,10.15
2023-05-09T07:07:41.635Z,10.07
2023-05-09T07:10:12.293Z,9.45
2023-05-09T07:12:41.476Z,10.52
2023-05-09T07:15:10.918Z,10.32
2023-05-09T07:17:39.509Z,10.85
2023-05-09T07:20:08.758Z,10.10
2023-05-09T07:22:37.895Z,10.38
2023-05-09T07:25:09.290Z,10.55
2023-05-09T07:27:37.696Z,10.00
2023-05-09T07:30:06.388Z,10.85
2023-05-09T07:32:35.235Z,10.77
2023-05-09T07:35:04.161Z,11.15
2023-05-09T07:37:32.584Z,14.02
2023-05-09T07:40:01.541Z,10.15
2023-05-09T07:42:32.710Z,10.65
2023-05-09T07:45:01.149Z,11.10
2023-05-09T07:47:29.580Z,9.57
2023-05-09T07:49:58.045Z,9.57
2023-05-09T07:52:26.444Z,8.65
2023-05-09T07:54:55.222Z,8.20
2023-05-09T07:57:23.846Z,8.30
2023-05-09T07:59:53.612Z,7.57
2023-05-09T08:02:22.023Z,8.45
2023-05-09T08:04:50.513Z,7.32
2023-05-09T08:07:18.883Z,7.32
2023-05-09T08:09:47.265Z,7.25
2023-05-09T08:12:15.713Z,6.93
2023-05-09T08:14:45.670Z,7.53
2023-05-09T08:17:16.290Z,7.70
2023-05-09T08:19:44.707Z,6.53
2023-05-09T08:22:18.534Z,6.75
2023-05-09T08:24:47.107Z,6.63
2023-05-09T08:27:15.721Z,7.75
2023-05-09T08:29:44.734Z,6.63
2023-05-09T08:32:13.221Z,6.85
2023-05-09T08:34:42.989Z,6.70
2023-05-09T08:37:12.924Z,7.40
2023-05-09T08:39:43.496Z,7.63
2023-05-09T08:42:11.965Z,7.97
2023-05-09T08:44:40.373Z,7.28
2023-05-09T08:47:09.231Z,7.22
2023-05-09T08:49:37.622Z,7.57
2023-05-09T08:52:07.559Z,7.22
2023-05-09T08:54:36.926Z,6.40
2023-05-09T08:57:05.574Z,6.70
2023-05-09T08:59:36.788Z,7.22
2023-05-09T09:02:08.381Z,6.25
2023-05-09T09:04:37.350Z,6.72
2023-05-09T09:07:08.785Z,8.27
2023-05-09T09:09:38.053Z,9.88
2023-05-09T09:12:08.553Z,9.57
2023-05-09T09:14:39.899Z,6.72
2023-05-09T09:17:10.255Z,6.82
2023-05-09T09:19:39.005Z,6.43
2023-05-09T09:22:09.995Z,5.85
2023-05-09T09:24:38.645Z,5.00
2023-05-09T09:27:07.481Z,5.28
2023-05-09T09:29:36.246Z,5.30
2023-05-09T09:32:05.385Z,4.85
2023-05-09T09:34:34.043Z,5.13
2023-05-09T09:37:02.494Z,4.78
2023-05-09T09:39:32.239Z,5.07
2023-05-09T09:42:11.482Z,4.72
2023-05-09T09:44:39.936Z,4.20
2023-05-09T09:47:12.341Z,4.03
2023-05-09T09:49:46.860Z,4.30
2023-05-09T09:52:24.746Z,3.20
2023-05-09T09:54:57.673Z,3.80
2023-05-09T09:57:39.864Z,3.95
2023-05-09T10:00:09.138Z,3.75
2023-05-09T10:02:37.596Z,3.45
2023-05-09T10:05:08.915Z,3.03
2023-05-09T10:07:37.734Z,6.72
2023-05-09T10:10:08.213Z,7.18
2023-05-09T10:12:38.470Z,4.00
2023-05-09T10:15:08.985Z,3.17
2023-05-09T10:17:37.648Z,3.30
2023-05-09T10:20:07.331Z,3.30
2023-05-09T10:22:36.447Z,3.40
2023-05-09T10:25:06.748Z,3.25
2023-05-09T10:27:37.921Z,3.40
2023-05-09T10:30:08.868Z,3.10
2023-05-09T10:32:41.426Z,3.13
2023-05-09T10:35:13.920Z,3.20
2023-05-09T10:37:43.194Z,2.95
2023-05-09T10:40:15.181Z,3.30
2023-05-09T10:42:45.912Z,3.45
2023-05-09T10:45:14.886Z,3.53
2023-05-09T10:47:44.165Z,3.20
2023-05-09T10:50:13.965Z,4.20
2023-05-09T10:53:00.796Z,4.88
2023-05-09T10:55:37.696Z,3.72
2023-05-09T10:58:20.096Z,3.72
2023-05-09T11:00:49.258Z,4.05
2023-05-09T11:03:19.405Z,3.75
2023-05-09T11:05:48.110Z,4.32
2023-05-09T11:08:23.464Z,4.50
2023-05-09T11:10:51.886Z,3.80
2023-05-09T11:13:23.545Z,4.25
2023-05-09T11:15:52.912Z,4.18
2023-05-09T11:18:21.338Z,4.38
2023-05-09T11:20:51.462Z,4.30
2023-05-09T11:23:20.538Z,4.45
2023-05-09T11:25:49.242Z,3.90
2023-05-09T11:28:29.774Z,4.20
2023-05-09T11:31:10.868Z,5.55
2023-05-09T11:33:39.845Z,10.60
2023-05-09T11:36:18.535Z,6.18
2023-05-09T11:38:47.330Z,3.97
2023-05-09T11:41:16.006Z,3.75
2023-05-09T11:43:45.981Z,3.67
2023-05-09T11:46:14.516Z,3.97
2023-05-09T11:48:43.043Z,3.45
2023-05-09T11:51:18.315Z,3.85
2023-05-09T11:56:15.996Z,3.65
2023-05-09T11:58:46.874Z,4.00
2023-05-09T12:01:15.439Z,3.90
2023-05-09T12:03:44.855Z,3.88
2023-05-09T12:06:15.882Z,4.32
2023-05-09T12:08:44.321Z,4.20
2023-05-09T12:11:12.927Z,4.20
2023-05-09T12:13:48.467Z,3.78
2023-05-09T12:16:17.227Z,3.80
2023-05-09T12:18:48.848Z,3.90
2023-05-09T12:21:17.291Z,3.70
2023-05-09T12:23:45.764Z,3.88
2023-05-09T12:26:14.599Z,3.45
2023-05-09T12:28:43.408Z,3.83
2023-05-09T12:31:13.473Z,3.80
2023-05-09T12:33:42.105Z,3.80
2023-05-09T12:36:11.580Z,3.92
2023-05-09T12:38:40.307Z,3.63
2023-05-09T12:41:15.531Z,2.97
2023-05-09T12:43:51.036Z,3.28
2023-05-09T12:46:21.661Z,3.63
2023-05-09T12:48:50.392Z,3.50
2023-05-09T12:51:21.054Z,3.33
2023-05-09T12:53:49.880Z,4.10
2023-05-09T12:56:18.894Z,3.38
2023-05-09T12:58:51.198Z,3.33
2023-05-09T13:01:21.319Z,3.08
2023-05-09T13:03:53.302Z,2.85
2023-05-09T13:06:24.158Z,2.55
2023-05-09T13:09:02.552Z,2.30
2023-05-09T13:11:31.496Z,1.98
2023-05-09T13:13:59.955Z,1.90
2023-05-09T13:16:29.772Z,1.70
2023-05-09T13:18:58.226Z,1.50
2023-05-09T13:21:26.664Z,1.75
2023-05-09T13:23:55.063Z,1.60
2023-05-09T13:26:23.582Z,1.48
2023-05-09T13:28:52.021Z,1.48
2023-05-09T13:31:21.074Z,1.42
2023-05-09T13:33:51.871Z,1.60
2023-05-09T13:36:20.761Z,1.80
2023-05-09T13:38:49.290Z,1.90
2023-05-09T13:41:21.146Z,1.75
2023-05-09T13:43:50.037Z,1.50
2023-05-09T13:46:18.522Z,1.60
2023-05-09T13:48:47.822Z,2.03
2023-05-09T13:51:17.641Z,1.80
2023-05-09T13:53:46.069Z,2.55
2023-05-09T13:56:14.449Z,2.28
2023-05-09T13:58:42.820Z,2.05
2023-05-09T14:01:11.436Z,2.50
2023-05-09T14:03:39.926Z,1.85
2023-05-09T14:06:09.372Z,2.83
2023-05-09T14:08:39.696Z,1.80
2023-05-09T14:11:09.349Z,1.73
2023-05-09T14:13:37.818Z,1.90
2023-05-09T14:16:06.557Z,1.60
2023-05-09T14:18:35.296Z,1.50
2023-05-09T14:21:03.731Z,1.40
2023-05-09T14:23:32.146Z,1.48
2023-05-09T14:26:01.933Z,2.00
2023-05-09T14:28:30.416Z,1.48
2023-05-09T14:30:58.769Z,1.50
2023-05-09T14:33:27.993Z,1.83
2023-05-09T14:35:56.402Z,1.83
2023-05-09T14:38:24.865Z,1.35
2023-05-09T14:40:53.237Z,1.17
2023-05-09T14:43:23.025Z,1.00
2023-05-09T14:45:51.717Z,1.10
2023-05-09T14:48:20.118Z,0.95
2023-05-09T14:50:49.723Z,1.15
2023-05-09T14:53:18.463Z,0.98
2023-05-09T14:55:47.215Z,1.02
2023-05-09T14:58:16.150Z,0.90
2023-05-09T15:00:45.979Z,1.00
2023-05-09T15:03:14.339Z,1.27
2023-05-09T15:05:43.214Z,0.90
2023-05-09T15:08:11.592Z,1.08
2023-05-09T15:10:39.984Z,1.10
2023-05-09T15:13:08.409Z,1.00
2023-05-09T15:15:38.424Z,0.90
2023-05-09T15:18:10.257Z,1.00
2023-05-09T15:20:39.249Z,1.10
2023-05-09T15:23:07.927Z,1.00
2023-05-09T15:25:36.426Z,1.02
2023-05-09T15:28:04.845Z,1.00
2023-05-09T15:30:33.297Z,0.98
2023-05-09T15:33:01.781Z,1.10
2023-05-09T15:35:31.636Z,1.08
2023-05-09T15:38:00.023Z,1.00
2023-05-09T15:40:29.134Z,2.38
2023-05-09T15:42:58.449Z,1.35
2023-05-09T15:45:26.807Z,1.00
2023-05-09T15:47:55.189Z,1.20
2023-05-09T15:50:23.709Z,1.00
2023-05-09T15:52:53.481Z,0.88
2023-05-09T15:55:23.166Z,1.02
2023-05-09T15:57:52.566Z,0.90
2023-05-09T16:00:21.184Z,0.90
2023-05-09T16:02:49.712Z,1.00
2023-05-09T16:05:18.180Z,1.40
2023-05-09T16:07:47.720Z,1.08
2023-05-09T16:10:17.804Z,1.73
2023-05-09T16:12:46.420Z,2.38
2023-05-09T16:15:14.898Z,2.28
2023-05-09T16:17:44.550Z,1.67
2023-05-09T16:20:14.501Z,1.50
2023-05-09T16:22:43.116Z,1.10
2023-05-09T16:25:13.056Z,1.15
2023-05-09T16:27:42.801Z,1.20
2023-05-09T16:30:11.808Z,1.10
2023-05-09T16:32:40.219Z,0.90
2023-05-09T16:35:08.942Z,1.48
2023-05-09T16:37:37.487Z,1.20
2023-05-09T16:40:06.349Z,1.90
2023-05-09T16:42:34.783Z,1.80
2023-05-09T16:45:04.543Z,1.45
2023-05-09T16:47:33.012Z,1.80
2023-05-09T16:50:01.430Z,1.70
2023-05-09T16:52:30.585Z,1.00
2023-05-09T16:54:59.466Z,2.25
2023-05-09T16:57:27.982Z,1.70
2023-05-09T16:59:56.371Z,1.45
2023-05-09T17:02:26.184Z,1.80
2023-05-09T17:04:54.766Z,1.83
2023-05-09T17:07:23.312Z,1.92
2023-05-09T17:09:51.712Z,1.70
2023-05-09T17:12:20.165Z,1.50
2023-05-09T17:14:49.008Z,1.90
2023-05-09T17:17:17.909Z,1.58
2023-05-09T17:19:47.682Z,1.70
2023-05-09T17:22:16.072Z,1.70
2023-05-09T17:24:44.525Z,2.00
2023-05-09T17:27:13.082Z,1.27
2023-05-09T17:29:41.433Z,1.10
2023-05-09T17:32:10.166Z,1.60
2023-05-09T17:34:39.052Z,1.27
2023-05-09T17:37:09.205Z,1.85
2023-05-09T17:39:38.276Z,1.52
2023-05-09T17:42:06.906Z,2.10
2023-05-09T17:44:35.331Z,1.85
2023-05-09T17:47:03.953Z,1.63
2023-05-09T17:49:32.350Z,2.00
2023-05-09T17:52:01.381Z,1.42
2023-05-09T17:54:31.115Z,1.63
2023-05-09T17:57:01.820Z,1.83
2023-05-09T17:59:30.234Z,2.17
2023-05-09T18:01:58.772Z,1.75
2023-05-09T18:04:30.316Z,1.95
2023-05-09T18:06:58.804Z,2.60
2023-05-09T18:09:28.102Z,2.10
2023-05-09T18:11:59.116Z,2.30
2023-05-09T18:14:27.518Z,2.90
2023-05-09T18:16:55.921Z,2.88
2023-05-09T18:19:24.299Z,1.88
2023-05-09T18:21:52.746Z,2.35
2023-05-09T18:24:21.694Z,2.53
2023-05-09T18:26:50.244Z,2.38
2023-05-09T18:29:20.141Z,2.53
2023-05-09T18:31:48.615Z,2.53
2023-05-09T18:34:17.063Z,3.03
2023-05-09T18:36:45.457Z,2.83
2023-05-09T18:39:14.228Z,3.00
2023-05-09T18:41:42.638Z,3.10
2023-05-09T18:44:11.169Z,3.10
2023-05-09T18:46:41.433Z,2.92
2023-05-09T18:49:10.375Z,3.55
2023-05-09T18:51:38.844Z,3.45
2023-05-09T18:54:08.203Z,4.05
2023-05-09T18:56:39.417Z,3.45
2023-05-09T18:59:09.564Z,3.65
2023-05-09T19:01:38.098Z,3.60
2023-05-09T19:04:07.993Z,3.28
2023-05-09T19:06:36.522Z,3.47
2023-05-09T19:09:05.651Z,4.47
2023-05-09T19:11:34.057Z,4.35
2023-05-09T19:14:02.711Z,4.32
2023-05-09T19:16:31.422Z,4.85
2023-05-09T19:18:59.927Z,5.45
2023-05-09T19:21:29.820Z,5.70
2023-05-09T19:23:58.180Z,3.22
2023-05-09T19:26:26.597Z,4.25
2023-05-09T19:28:55.017Z,5.57
2023-05-09T19:31:25.584Z,3.00
2023-05-09T19:33:54.175Z,5.53
2023-05-09T19:36:22.572Z,4.72
2023-05-09T19:38:52.464Z,3.30
2023-05-09T19:41:21.670Z,5.35
2023-05-09T19:43:51.290Z,4.68
2023-05-09T19:46:19.794Z,6.50
2023-05-09T19:48:48.231Z,6.63
2023-05-09T19:51:16.659Z,5.63
2023-05-09T19:53:46.843Z,5.47
2023-05-09T19:56:16.647Z,3.30
2023-05-09T19:58:49.596Z,7.32
2023-05-09T20:01:19.100Z,5.63
2023-05-09T20:03:50.376Z,6.57
2023-05-09T20:06:18.858Z,7.80
2023-05-09T20:08:47.275Z,6.68
2023-05-09T20:11:17.052Z,2.97
2023-05-09T20:13:45.819Z,7.85
2023-05-09T20:16:14.603Z,6.40
2023-05-09T20:18:43.042Z,5.90
2023-05-09T20:21:12.435Z,5.88
2023-05-09T20:23:41.122Z,5.50
2023-05-09T20:26:09.506Z,6.05
2023-05-09T20:28:39.306Z,9.43
2023-05-09T20:31:07.696Z,9.88
2023-05-09T20:33:36.151Z,9.85
2023-05-09T20:36:06.698Z,6.40
2023-05-09T20:38:35.171Z,9.90
2023-05-09T20:41:04.090Z,10.52
2023-05-09T20:43:32.508Z,9.88
2023-05-09T20:46:02.319Z,10.02
2023-05-09T20:48:31.166Z,10.90
2023-05-09T20:50:59.636Z,10.70
2023-05-09T20:53:31.311Z,11.77
2023-05-09T20:56:00.183Z,7.78
2023-05-09T20:58:31.222Z,11.05
2023-05-09T21:00:59.627Z,11.23
2023-05-09T21:03:29.466Z,6.47
2023-05-09T21:05:57.997Z,8.88
2023-05-09T21:08:27.404Z,9.90
2023-05-09T21:10:56.020Z,12.10
2023-05-09T21:13:24.690Z,9.88
2023-05-09T21:15:53.152Z,13.23
2023-05-09T21:18:22.241Z,10.13
2023-05-09T21:20:52.099Z,12.55
2023-05-09T21:23:20.483Z,10.20
2023-05-09T21:25:48.907Z,8.10
2023-05-09T21:28:17.471Z,10.25
2023-05-09T21:30:45.845Z,10.40
2023-05-09T21:33:13.944Z,11.30
2023-05-09T21:35:43.338Z,9.55
2023-05-09T21:38:12.829Z,13.55
2023-05-09T21:40:41.710Z,12.35
2023-05-09T21:43:09.842Z,13.63
2023-05-09T21:45:37.916Z,13.23
2023-05-09T21:48:06.464Z,14.00
2023-05-09T21:50:34.544Z,13.88
2023-05-09T21:53:03.239Z,14.07
2023-05-09T21:55:32.700Z,13.43
2023-05-09T21:58:00.866Z,7.30
2023-05-09T22:00:29.080Z,13.10
2023-05-09T22:02:57.273Z,13.68
2023-05-09T22:05:25.648Z,13.48
2023-05-09T22:07:53.725Z,10.15
2023-05-09T22:10:21.827Z,7.95
2023-05-09T22:12:51.355Z,9.98
2023-05-09T22:15:19.458Z,11.68
2023-05-09T22:17:47.714Z,11.80
2023-05-09T22:20:16.373Z,10.50
2023-05-09T22:22:44.689Z,11.63
2023-05-09T22:25:12.865Z,11.35
2023-05-09T22:27:40.982Z,8.93
2023-05-09T22:30:12.393Z,11.63
2023-05-09T22:32:40.682Z,11.77
2023-05-09T22:35:09.696Z,12.32
2023-05-09T22:37:37.945Z,11.25
2023-05-09T22:40:07.348Z,11.35
2023-05-09T22:42:35.616Z,11.35
2023-05-09T22:45:03.757Z,8.63
2023-05-09T22:47:33.339Z,8.35
2023-05-09T22:50:01.525Z,8.27
2023-05-09T22:52:29.618Z,8.55
2023-05-09T22:54:57.740Z,9.68
2023-05-09T22:57:25.821Z,8.63
2023-05-09T22:59:54.375Z,8.80
2023-05-09T23:02:22.722Z,7.88
2023-05-09T23:04:52.280Z,8.90
2023-05-09T23:07:20.416Z,7.32
2023-05-09T23:09:48.481Z,8.48
2023-05-09T23:12:16.540Z,7.00
2023-05-09T23:14:44.626Z,6.75
2023-05-09T23:17:12.721Z,7.47
2023-05-09T23:19:40.834Z,6.70
2023-05-09T23:22:10.504Z,7.03
2023-05-09T23:24:38.615Z,9.20
2023-05-09T23:27:06.960Z,4.60
2023-05-09T23:29:35.057Z,6.60
2023-05-09T23:32:03.178Z,7.88
2023-05-09T23:34:31.882Z,9.07
2023-05-09T23:37:00.055Z,9.48
2023-05-09T23:39:29.637Z,9.32
2023-05-09T23:41:58.257Z,8.30
2023-05-09T23:44:26.677Z,9.80
2023-05-09T23:46:54.878Z,10.23
2023-05-09T23:49:23.065Z,8.77
2023-05-09T23:51:51.135Z,9.20
2023-05-09T23:54:21.376Z,10.13
2023-05-09T23:56:51.058Z,9.75
2023-05-09T23:59:19.173Z,10.27
